createdAt,value
2022-12-29T00:00:20.529Z,97829.84
2022-12-29T00:02:47.610Z,97828.78
2022-12-29T00:05:14.538Z,97831.09
2022-12-29T00:07:41.509Z,97838.59
2022-12-29T00:10:08.830Z,97835.53
2022-12-29T00:12:55.870Z,97845.28
2022-12-29T00:15:40.966Z,97847.38
2022-12-29T00:18:08.591Z,97842.38
2022-12-29T00:20:56.059Z,97845.88
2022-12-29T00:23:41.958Z,97858.75
2022-12-29T00:26:45.629Z,97849.47
2022-12-29T00:29:30.913Z,97859.41
2022-12-29T00:32:16.350Z,97862.50
2022-12-29T00:35:03.504Z,97865.66
2022-12-29T00:37:49.147Z,97857.69
2022-12-29T00:40:34.389Z,97858.28
2022-12-29T00:43:19.913Z,97858.06
2022-12-29T00:45:46.694Z,97851.44
2022-12-29T00:48:13.783Z,97855.00
2022-12-29T00:50:40.905Z,97855.16
2022-12-29T00:53:07.673Z,97857.16
2022-12-29T00:55:39.184Z,97849.31
2022-12-29T00:58:06.216Z,97856.94
2022-12-29T01:00:33.021Z,97853.06
2022-12-29T01:02:59.932Z,97852.63
2022-12-29T01:05:26.853Z,97834.41
2022-12-29T01:07:53.621Z,97846.16
2022-12-29T01:10:20.675Z,97848.25
2022-12-29T01:12:48.576Z,97844.38
2022-12-29T01:15:16.681Z,97835.69
2022-12-29T01:17:43.870Z,97844.69
2022-12-29T01:20:12.154Z,97838.38
2022-12-29T01:22:40.012Z,97836.50
2022-12-29T01:25:07.819Z,97831.91
2022-12-29T01:27:34.685Z,97842.72
2022-12-29T01:30:01.731Z,97836.28
2022-12-29T01:32:28.705Z,97840.00
2022-12-29T01:34:55.499Z,97831.47
2022-12-29T01:37:22.337Z,97836.88
2022-12-29T01:39:49.108Z,97841.69
2022-12-29T01:42:23.401Z,97835.69
2022-12-29T01:45:04.924Z,97842.72
2022-12-29T01:47:39.449Z,97834.41
2022-12-29T01:50:30.304Z,97829.00
2022-12-29T01:53:29.475Z,97826.09
2022-12-29T01:56:02.051Z,97822.34
2022-12-29T01:58:35.410Z,97812.00
2022-12-29T02:01:03.513Z,97824.59
2022-12-29T02:03:33.800Z,97814.28
2022-12-29T02:06:09.859Z,97810.97
2022-12-29T02:08:37.229Z,97813.28
2022-12-29T02:11:04.421Z,97819.88
2022-12-29T02:13:31.637Z,97819.28
2022-12-29T02:16:23.744Z,97834.88
2022-12-29T02:19:02.627Z,97835.69
2022-12-29T02:21:53.493Z,97832.44
2022-12-29T02:24:50.972Z,97836.13
2022-12-29T02:28:10.598Z,97833.72
2022-12-29T02:31:04.517Z,97830.88
2022-12-29T02:34:03.097Z,97842.13
2022-12-29T02:36:46.806Z,97848.59
2022-12-29T02:39:51.470Z,97867.72
2022-12-29T02:42:30.800Z,97878.31
2022-12-29T02:45:26.721Z,97890.38
2022-12-29T02:48:05.078Z,97911.09
2022-12-29T02:50:40.866Z,97931.91
2022-12-29T02:53:18.559Z,97952.50
2022-12-29T02:55:53.444Z,97966.41
2022-12-29T02:58:23.558Z,97971.44
2022-12-29T03:01:27.489Z,97977.25
2022-12-29T03:04:29.429Z,97990.19
2022-12-29T03:07:18.540Z,98001.19
2022-12-29T03:10:08.862Z,98016.78
2022-12-29T03:13:13.077Z,98024.25
2022-12-29T03:16:06.680Z,98029.84
2022-12-29T03:18:42.884Z,98044.56
2022-12-29T03:21:50.135Z,98055.78
2022-12-29T03:24:19.905Z,98045.88
2022-12-29T03:26:49.134Z,98054.97
2022-12-29T03:29:18.547Z,98065.13
2022-12-29T03:31:46.913Z,98068.66
2022-12-29T03:34:15.914Z,98069.88
2022-12-29T03:37:02.613Z,98065.53
2022-12-29T03:39:29.942Z,98061.59
2022-12-29T03:42:04.500Z,98072.41
2022-12-29T03:44:38.500Z,98074.44
2022-12-29T03:47:06.630Z,98075.50
2022-12-29T03:49:35.150Z,98079.41
2022-12-29T03:52:02.095Z,98081.06
2022-12-29T03:54:28.904Z,98096.81
2022-12-29T03:56:55.715Z,98100.13
2022-12-29T03:59:22.602Z,98117.50
2022-12-29T04:01:49.540Z,98120.00
2022-12-29T04:04:16.611Z,98117.50
2022-12-29T04:06:44.556Z,98136.13
2022-12-29T04:09:12.455Z,98143.97
2022-12-29T04:11:39.235Z,98148.94
2022-12-29T04:14:06.047Z,98151.66
2022-12-29T04:16:36.962Z,98154.75
2022-12-29T04:19:04.007Z,98153.50
2022-12-29T04:21:31.016Z,98168.00
2022-12-29T04:23:57.901Z,98166.13
2022-12-29T04:26:24.713Z,98175.03
2022-12-29T04:28:51.492Z,98182.91
2022-12-29T04:31:18.298Z,98187.25
2022-12-29T04:33:45.716Z,98190.97
2022-12-29T04:36:12.503Z,98199.44
2022-12-29T04:38:39.319Z,98213.94
2022-12-29T04:41:06.568Z,98214.34
2022-12-29T04:43:33.352Z,98227.81
2022-12-29T04:46:01.034Z,98222.81
2022-12-29T04:48:27.865Z,98224.50
2022-12-29T04:50:54.819Z,98238.53
2022-12-29T04:53:21.767Z,98233.53
2022-12-29T04:55:52.842Z,98235.66
2022-12-29T04:58:23.576Z,98253.63
2022-12-29T05:00:52.474Z,98250.31
2022-12-29T05:03:19.727Z,98263.13
2022-12-29T05:05:46.963Z,98259.59
2022-12-29T05:08:13.814Z,98264.56
2022-12-29T05:10:41.059Z,98266.78
2022-12-29T05:13:08.154Z,98280.44
2022-12-29T05:15:34.935Z,98276.09
2022-12-29T05:18:01.910Z,98285.38
2022-12-29T05:20:28.726Z,98295.75
2022-12-29T05:22:55.517Z,98299.25
2022-12-29T05:25:22.354Z,98305.94
2022-12-29T05:27:49.141Z,98301.59
2022-12-29T05:30:15.985Z,98302.81
2022-12-29T05:32:43.086Z,98301.94
2022-12-29T05:35:09.990Z,98305.25
2022-12-29T05:37:36.809Z,98305.44
2022-12-29T05:40:04.894Z,98309.81
2022-12-29T05:42:31.689Z,98312.88
2022-12-29T05:44:58.458Z,98312.69
2022-12-29T05:47:25.337Z,98314.72
2022-12-29T05:49:52.800Z,98324.25
2022-12-29T05:52:19.690Z,98334.81
2022-12-29T05:54:46.712Z,98334.16
2022-12-29T05:57:15.807Z,98334.78
2022-12-29T05:59:42.617Z,98336.66
2022-12-29T06:02:11.085Z,98343.06
2022-12-29T06:04:37.994Z,98351.72
2022-12-29T06:07:04.785Z,98356.91
2022-12-29T06:09:31.695Z,98362.84
2022-12-29T06:11:58.489Z,98369.91
2022-12-29T06:14:25.254Z,98366.78
2022-12-29T06:16:52.083Z,98376.94
2022-12-29T06:19:18.944Z,98370.50
2022-12-29T06:21:46.045Z,98369.91
2022-12-29T06:24:12.874Z,98362.22
2022-12-29T06:26:41.234Z,98355.78
2022-12-29T06:29:09.541Z,98365.13
2022-12-29T06:31:36.537Z,98375.03
2022-12-29T06:34:08.256Z,98375.81
2022-12-29T06:36:35.969Z,98389.06
2022-12-29T06:39:02.753Z,98392.38
2022-12-29T06:41:32.356Z,98393.22
2022-12-29T06:43:59.513Z,98394.28
2022-12-29T06:46:26.575Z,98395.75
2022-12-29T06:48:53.554Z,98404.69
2022-12-29T06:51:20.378Z,98407.38
2022-12-29T06:53:47.144Z,98409.28
2022-12-29T06:56:13.990Z,98419.44
2022-12-29T06:58:40.784Z,98429.66
2022-12-29T07:01:07.880Z,98431.72
2022-12-29T07:03:34.720Z,98428.66
2022-12-29T07:06:01.547Z,98438.81
2022-12-29T07:08:28.661Z,98444.81
2022-12-29T07:10:55.497Z,98443.56
2022-12-29T07:13:22.281Z,98451.81
2022-12-29T07:15:49.113Z,98451.00
2022-12-29T07:18:15.922Z,98460.72
2022-12-29T07:20:44.452Z,98477.44
2022-12-29T07:23:11.286Z,98473.34
2022-12-29T07:25:38.056Z,98483.28
2022-12-29T07:28:05.285Z,98484.28
2022-12-29T07:30:32.121Z,98491.34
2022-12-29T07:32:59.025Z,98501.69
2022-12-29T07:35:25.876Z,98494.47
2022-12-29T07:37:52.701Z,98506.31
2022-12-29T07:40:19.559Z,98495.09
2022-12-29T07:42:46.809Z,98501.94
2022-12-29T07:45:13.677Z,98498.66
2022-12-29T07:47:40.459Z,98503.59
2022-12-29T07:50:07.721Z,98518.06
2022-12-29T07:52:34.624Z,98519.75
2022-12-29T07:55:01.417Z,98532.16
2022-12-29T07:57:32.150Z,98539.47
2022-12-29T07:59:59.757Z,98529.72
2022-12-29T08:02:27.977Z,98549.69
2022-12-29T08:04:55.122Z,98546.13
2022-12-29T08:07:22.296Z,98561.47
2022-12-29T08:09:49.100Z,98567.72
2022-12-29T08:12:16.495Z,98568.72
2022-12-29T08:14:43.311Z,98573.28
2022-12-29T08:17:11.141Z,98573.91
2022-12-29T08:19:39.050Z,98585.66
2022-12-29T08:22:05.963Z,98591.22
2022-12-29T08:24:32.773Z,98606.72
2022-12-29T08:27:04.551Z,98604.03
2022-12-29T08:29:36.014Z,98619.31
2022-12-29T08:32:02.797Z,98612.84
2022-12-29T08:34:31.402Z,98616.97
2022-12-29T08:36:58.588Z,98611.31
2022-12-29T08:39:25.424Z,98606.91
2022-12-29T08:41:52.350Z,98622.22
2022-12-29T08:44:19.177Z,98622.97
2022-12-29T08:46:46.033Z,98640.53
2022-12-29T08:49:13.181Z,98645.25
2022-12-29T08:51:40.127Z,98647.22
2022-12-29T08:54:06.967Z,98664.38
2022-12-29T08:56:33.990Z,98662.91
2022-12-29T08:59:00.968Z,98667.47
2022-12-29T09:01:27.983Z,98670.06
2022-12-29T09:06:43.388Z,98666.72
2022-12-29T09:09:10.331Z,98665.25
2022-12-29T09:11:37.375Z,98676.19
2022-12-29T09:14:05.069Z,98685.47
2022-12-29T09:16:32.548Z,98681.75
2022-12-29T09:18:59.437Z,98692.78
2022-12-29T09:21:26.883Z,98697.97
2022-12-29T09:23:53.760Z,98695.75
2022-12-29T09:26:20.562Z,98699.72
2022-12-29T09:28:48.283Z,98691.47
2022-12-29T09:31:15.663Z,98691.53
2022-12-29T09:33:42.540Z,98695.03
2022-12-29T09:36:09.996Z,98703.75
2022-12-29T09:38:36.867Z,98698.59
2022-12-29T09:41:19.796Z,98697.34
2022-12-29T09:44:05.987Z,98707.34
2022-12-29T09:46:42.529Z,98705.69
2022-12-29T09:49:47.148Z,98707.97
2022-12-29T09:52:30.796Z,98714.72
2022-12-29T09:55:14.035Z,98717.91
2022-12-29T09:57:58.908Z,98724.81
2022-12-29T10:00:40.227Z,98718.47
2022-12-29T10:03:20.810Z,98721.88
2022-12-29T10:06:38.266Z,98723.63
2022-12-29T10:09:49.503Z,98734.78
2022-12-29T10:12:49.418Z,98733.63
2022-12-29T10:15:46.483Z,98741.34
2022-12-29T10:18:33.926Z,98747.44
2022-12-29T10:21:25.853Z,98751.78
2022-12-29T10:23:54.308Z,98740.19
2022-12-29T10:26:46.297Z,98756.19
2022-12-29T10:29:21.604Z,98757.41
2022-12-29T10:32:01.521Z,98763.00
2022-12-29T10:34:53.913Z,98772.94
2022-12-29T10:37:50.057Z,98775.44
2022-12-29T10:40:47.520Z,98776.00
2022-12-29T10:43:45.565Z,98785.16
2022-12-29T10:46:19.243Z,98777.78
2022-12-29T10:48:47.834Z,98792.72
2022-12-29T10:51:39.984Z,98789.00
2022-12-29T10:54:34.264Z,98797.47
2022-12-29T10:57:09.059Z,98796.47
2022-12-29T10:59:38.723Z,98791.28
2022-12-29T11:02:11.625Z,98793.50
2022-12-29T11:04:47.163Z,98790.63
2022-12-29T11:07:22.175Z,98799.34
2022-12-29T11:09:52.048Z,98797.84
2022-12-29T11:12:27.947Z,98800.22
2022-12-29T11:15:16.013Z,98796.56
2022-12-29T11:17:51.311Z,98782.50
2022-12-29T11:20:39.778Z,98778.34
2022-12-29T11:23:34.637Z,98780.25
2022-12-29T11:26:15.712Z,98784.63
2022-12-29T11:28:49.393Z,98781.25
2022-12-29T11:31:23.165Z,98789.16
2022-12-29T11:33:50.391Z,98796.59
2022-12-29T11:36:25.955Z,98787.88
2022-12-29T11:38:55.939Z,98799.03
2022-12-29T11:41:30.077Z,98783.72
2022-12-29T11:44:04.218Z,98790.91
2022-12-29T11:46:36.112Z,98781.16
2022-12-29T11:49:05.262Z,98790.91
2022-12-29T11:51:49.324Z,98773.72
2022-12-29T11:54:38.805Z,98772.91
2022-12-29T11:57:17.255Z,98782.06
2022-12-29T11:59:56.546Z,98777.94
2022-12-29T12:02:28.896Z,98770.00
2022-12-29T12:05:10.091Z,98775.41
2022-12-29T12:07:47.889Z,98780.84
2022-12-29T12:10:29.325Z,98784.19
2022-12-29T12:13:06.214Z,98782.34
2022-12-29T12:16:01.003Z,98785.09
2022-12-29T12:19:28.626Z,98789.84
2022-12-29T12:22:05.446Z,98797.94
2022-12-29T12:24:35.199Z,98797.78
2022-12-29T12:27:15.355Z,98798.41
2022-12-29T12:30:24.604Z,98805.06
2022-12-29T12:33:02.349Z,98791.13
2022-12-29T12:36:25.446Z,98798.47
2022-12-29T12:39:13.310Z,98792.25
2022-12-29T12:41:58.017Z,98793.91
2022-12-29T12:44:24.816Z,98807.75
2022-12-29T12:47:32.529Z,98801.78
2022-12-29T12:50:50.208Z,98809.00
2022-12-29T12:53:56.135Z,98810.25
2022-12-29T12:56:45.545Z,98799.91
2022-12-29T12:59:50.682Z,98811.41
2022-12-29T13:02:39.061Z,98795.84
2022-12-29T13:05:39.956Z,98797.03
2022-12-29T13:08:33.145Z,98804.31
2022-12-29T13:11:29.851Z,98800.97
2022-12-29T13:14:26.725Z,98803.88
2022-12-29T13:17:13.551Z,98798.50
2022-12-29T13:20:21.654Z,98802.63
2022-12-29T13:23:37.601Z,98823.00
2022-12-29T13:26:23.042Z,98831.72
2022-12-29T13:29:13.225Z,98826.53
2022-12-29T13:32:12.139Z,98825.50
2022-12-29T13:35:23.294Z,98830.06
2022-12-29T13:38:12.465Z,98833.97
2022-12-29T13:40:46.745Z,98846.25
2022-12-29T13:43:15.562Z,98853.28
2022-12-29T13:45:45.151Z,98850.84
2022-12-29T13:48:26.289Z,98856.63
2022-12-29T13:50:58.674Z,98872.78
2022-12-29T13:53:36.652Z,98869.09
2022-12-29T13:56:21.752Z,98862.66
2022-12-29T13:59:06.144Z,98865.78
2022-12-29T14:01:55.976Z,98864.72
2022-12-29T14:04:27.317Z,98875.31
2022-12-29T14:07:05.681Z,98872.94
2022-12-29T14:09:47.596Z,98872.75
2022-12-29T14:12:34.665Z,98874.75
2022-12-29T14:15:22.412Z,98881.38
2022-12-29T14:18:26.866Z,98891.75
2022-12-29T14:21:20.134Z,98896.69
2022-12-29T14:23:50.545Z,98893.19
2022-12-29T14:26:32.970Z,98898.38
2022-12-29T14:29:40.600Z,98907.88
2022-12-29T14:32:22.574Z,98908.25
2022-12-29T14:34:52.437Z,98913.28
2022-12-29T14:37:31.140Z,98924.38
2022-12-29T14:40:27.490Z,98916.69
2022-12-29T14:42:58.713Z,98912.72
2022-12-29T14:45:31.750Z,98923.41
2022-12-29T14:47:59.193Z,98920.59
2022-12-29T14:50:40.970Z,98938.81
2022-12-29T14:53:47.747Z,98939.06
2022-12-29T14:56:19.327Z,98951.69
2022-12-29T14:58:53.238Z,98944.72
2022-12-29T15:01:28.052Z,98941.19
2022-12-29T15:03:58.967Z,98948.81
2022-12-29T15:06:30.811Z,98960.63
2022-12-29T15:09:07.954Z,98964.53
2022-12-29T15:11:37.806Z,98971.25
2022-12-29T15:14:04.911Z,98985.75
2022-12-29T15:16:36.977Z,98986.13
2022-12-29T15:19:06.273Z,98987.09
2022-12-29T15:21:37.781Z,98986.34
2022-12-29T15:24:05.662Z,98993.16
2022-12-29T15:26:42.292Z,99006.72
2022-12-29T15:29:38.355Z,99015.91
2022-12-29T15:32:23.524Z,99015.28
2022-12-29T15:34:52.851Z,99014.91
2022-12-29T15:37:26.791Z,99021.47
2022-12-29T15:39:56.126Z,99033.94
2022-12-29T15:42:51.193Z,99040.63
2022-12-29T15:45:18.133Z,99030.84
2022-12-29T15:47:49.962Z,99045.25
2022-12-29T15:50:28.866Z,99032.19
2022-12-29T15:52:57.040Z,99042.72
2022-12-29T15:55:35.806Z,99037.00
2022-12-29T15:58:20.063Z,99043.13
2022-12-29T16:00:51.621Z,99051.66
2022-12-29T16:03:18.873Z,99045.25
2022-12-29T16:05:57.194Z,99041.53
2022-12-29T16:08:34.352Z,99048.97
2022-12-29T16:11:09.226Z,99051.38
2022-12-29T16:13:41.398Z,99048.97
2022-12-29T16:16:21.081Z,99064.09
2022-12-29T16:18:52.006Z,99056.09
2022-12-29T16:21:35.497Z,99066.38
2022-12-29T16:24:09.557Z,99076.19
2022-12-29T16:26:37.408Z,99069.50
2022-12-29T16:29:08.008Z,99068.16
2022-12-29T16:31:36.303Z,99071.13
2022-12-29T16:34:33.158Z,99081.56
2022-12-29T16:37:04.092Z,99076.91
2022-12-29T16:39:36.212Z,99083.03
2022-12-29T16:42:37.916Z,99077.69
2022-12-29T16:45:20.124Z,99081.22
2022-12-29T16:47:50.804Z,99089.00
2022-12-29T16:50:28.230Z,99085.81
2022-12-29T16:52:55.390Z,99091.44
2022-12-29T16:55:22.599Z,99096.63
2022-12-29T16:57:54.618Z,99103.72
2022-12-29T17:00:31.713Z,99104.72
2022-12-29T17:03:01.430Z,99107.47
2022-12-29T17:05:28.532Z,99108.19
2022-12-29T17:07:56.121Z,99111.88
2022-12-29T17:10:42.909Z,99112.75
2022-12-29T17:13:09.898Z,99118.28
2022-12-29T17:15:36.959Z,99122.34
2022-12-29T17:18:06.379Z,99123.88
2022-12-29T17:20:36.993Z,99127.59
2022-12-29T17:23:19.951Z,99135.97
2022-12-29T17:25:51.824Z,99126.25
2022-12-29T17:28:26.252Z,99134.00
2022-12-29T17:30:55.464Z,99135.16
2022-12-29T17:33:22.569Z,99141.22
2022-12-29T17:35:54.871Z,99144.94
2022-12-29T17:38:29.071Z,99144.44
2022-12-29T17:40:56.283Z,99143.44
2022-12-29T17:43:23.713Z,99156.22
2022-12-29T17:45:58.116Z,99160.75
2022-12-29T17:48:28.997Z,99164.75
2022-12-29T17:50:58.322Z,99163.09
2022-12-29T17:53:28.723Z,99167.97
2022-12-29T17:55:55.755Z,99163.78
2022-12-29T17:58:33.247Z,99163.97
2022-12-29T18:01:02.723Z,99170.00
2022-12-29T18:03:34.002Z,99169.16
2022-12-29T18:06:02.441Z,99177.38
2022-12-29T18:08:29.605Z,99186.09
2022-12-29T18:10:57.108Z,99175.84
2022-12-29T18:13:35.790Z,99174.69
2022-12-29T18:16:11.767Z,99171.50
2022-12-29T18:18:38.584Z,99178.88
2022-12-29T18:21:05.988Z,99184.75
2022-12-29T18:23:37.073Z,99192.31
2022-12-29T18:26:23.916Z,99190.31
2022-12-29T18:28:54.196Z,99193.81
2022-12-29T18:31:21.129Z,99193.97
2022-12-29T18:33:50.301Z,99200.03
2022-12-29T18:36:18.879Z,99196.31
2022-12-29T18:38:46.083Z,99213.09
2022-12-29T18:41:20.319Z,99220.47
2022-12-29T18:43:47.637Z,99223.84
2022-12-29T18:46:20.505Z,99224.50
2022-12-29T18:48:49.420Z,99223.16
2022-12-29T18:51:21.841Z,99215.44
2022-12-29T18:53:49.547Z,99225.34
2022-12-29T18:56:16.391Z,99242.41
2022-12-29T18:58:43.547Z,99246.59
2022-12-29T19:01:24.071Z,99249.47
2022-12-29T19:03:52.071Z,99260.53
2022-12-29T19:06:21.121Z,99262.53
2022-12-29T19:08:47.991Z,99267.38
2022-12-29T19:11:15.031Z,99268.41
2022-12-29T19:13:41.902Z,99272.41
2022-12-29T19:16:19.418Z,99289.81
2022-12-29T19:18:53.306Z,99280.28
2022-12-29T19:21:30.787Z,99291.31
2022-12-29T19:23:57.573Z,99294.50
2022-12-29T19:26:36.158Z,99296.50
2022-12-29T19:29:04.411Z,99295.13
2022-12-29T19:31:31.718Z,99290.09
2022-12-29T19:33:58.620Z,99294.13
2022-12-29T19:36:25.399Z,99299.78
2022-12-29T19:38:52.427Z,99305.16
2022-12-29T19:41:19.298Z,99307.16
2022-12-29T19:43:46.327Z,99305.16
2022-12-29T19:46:19.866Z,99294.44
2022-12-29T19:48:46.770Z,99291.06
2022-12-29T19:51:17.524Z,99301.50
2022-12-29T19:53:46.113Z,99296.13
2022-12-29T19:56:14.511Z,99289.44
2022-12-29T19:58:46.968Z,99293.25
2022-12-29T20:01:23.246Z,99292.44
2022-12-29T20:03:51.316Z,99297.47
2022-12-29T20:06:19.207Z,99297.47
2022-12-29T20:08:46.149Z,99299.13
2022-12-29T20:11:16.694Z,99300.81
2022-12-29T20:13:45.007Z,99290.09
2022-12-29T20:16:18.693Z,99300.16
2022-12-29T20:18:47.101Z,99307.84
2022-12-29T20:21:19.743Z,99305.16
2022-12-29T20:23:48.021Z,99307.53
2022-12-29T20:26:19.265Z,99301.16
2022-12-29T20:28:47.041Z,99309.69
2022-12-29T20:31:23.678Z,99316.91
2022-12-29T20:33:50.989Z,99300.81
2022-12-29T20:36:24.462Z,99298.00
2022-12-29T20:38:53.633Z,99299.13
2022-12-29T20:41:21.386Z,99288.56
2022-12-29T20:43:48.572Z,99297.13
2022-12-29T20:46:20.411Z,99300.00
2022-12-29T20:48:49.393Z,99298.00
2022-12-29T20:51:16.668Z,99289.75
2022-12-29T20:53:43.568Z,99285.09
2022-12-29T20:56:19.483Z,99288.13
2022-12-29T20:59:25.278Z,99294.16
2022-12-29T21:01:34.503Z,99292.16
2022-12-29T21:04:05.799Z,99293.84
2022-12-29T21:06:33.880Z,99291.16
2022-12-29T21:09:01.432Z,99293.00
2022-12-29T21:11:28.497Z,99297.19
2022-12-29T21:13:59.267Z,99291.81
2022-12-29T21:16:28.116Z,99299.88
2022-12-29T21:18:55.321Z,99303.56
2022-12-29T21:21:25.928Z,99303.56
2022-12-29T21:23:53.461Z,99304.56
2022-12-29T21:26:23.821Z,99298.69
2022-12-29T21:28:51.490Z,99295.63
2022-12-29T21:31:31.558Z,99291.16
2022-12-29T21:33:59.271Z,99286.47
2022-12-29T21:36:27.611Z,99281.25
2022-12-29T21:38:55.929Z,99278.06
2022-12-29T21:41:23.157Z,99271.88
2022-12-29T21:44:09.828Z,99258.94
2022-12-29T21:46:39.832Z,99262.28
2022-12-29T21:49:08.432Z,99253.72
2022-12-29T21:51:51.377Z,99246.56
2022-12-29T21:54:45.893Z,99256.59
2022-12-29T21:57:34.666Z,99248.03
2022-12-29T22:00:20.398Z,99250.38
2022-12-29T22:03:05.926Z,99256.75
2022-12-29T22:05:51.200Z,99267.56
2022-12-29T22:08:36.944Z,99256.22
2022-12-29T22:11:28.284Z,99264.06
2022-12-29T22:13:56.432Z,99257.72
2022-12-29T22:16:25.416Z,99258.25
2022-12-29T22:18:52.540Z,99261.59
2022-12-29T22:21:20.057Z,99266.13
2022-12-29T22:23:46.899Z,99264.28
2022-12-29T22:26:15.083Z,99253.56
2022-12-29T22:28:46.419Z,99260.09
2022-12-29T22:31:43.147Z,99258.41
2022-12-29T22:34:11.261Z,99251.53
2022-12-29T22:36:38.096Z,99242.16
2022-12-29T22:39:04.908Z,99249.66
2022-12-29T22:41:31.742Z,99241.94
2022-12-29T22:43:58.914Z,99244.94
2022-12-29T22:46:28.883Z,99239.44
2022-12-29T22:48:57.822Z,99239.59
2022-12-29T22:51:24.601Z,99228.84
2022-12-29T22:53:52.088Z,99225.34
2022-12-29T22:56:20.897Z,99219.13
2022-12-29T22:58:48.624Z,99213.59
2022-12-29T23:01:21.501Z,99210.25
2022-12-29T23:03:48.845Z,99212.78
2022-12-29T23:06:17.475Z,99215.31
2022-12-29T23:08:45.244Z,99201.22
2022-12-29T23:11:13.478Z,99199.22
2022-12-29T23:13:41.237Z,99198.41
2022-12-29T23:16:08.633Z,99191.72
2022-12-29T23:18:35.680Z,99183.50
2022-12-29T23:21:03.304Z,99188.53
2022-12-29T23:23:49.760Z,99185.88
2022-12-29T23:26:32.323Z,99177.50
2022-12-29T23:29:00.834Z,99164.47
2022-12-29T23:31:30.153Z,99151.72
2022-12-29T23:33:58.297Z,99149.75
2022-12-29T23:36:25.848Z,99137.16
2022-12-29T23:38:52.826Z,99125.94
2022-12-29T23:41:19.619Z,99128.47
2022-12-29T23:43:48.042Z,99135.50
2022-12-29T23:46:18.801Z,99128.25
2022-12-29T23:48:46.096Z,99124.91
2022-12-29T23:51:13.742Z,99126.91
2022-12-29T23:53:43.342Z,99130.09
2022-12-29T23:56:20.847Z,99137.44
2022-12-29T23:58:48.443Z,99126.22
